sensor_id;sensor_type;location;lat;lon;timestamp;P1;durP1;ratioP1;P2;durP2;ratioP2
22904;SDS011;11619;50.140;8.518;2023-03-04T00:02:03;25.80;;;16.90;;
22904;SDS011;11619;50.140;8.518;2023-03-04T00:04:30;23.35;;;16.10;;
22904;SDS011;11619;50.140;8.518;2023-03-04T00:06:56;23.70;;;15.32;;
22904;SDS011;11619;50.140;8.518;2023-03-04T00:09:23;25.65;;;16.50;;
22904;SDS011;11619;50.140;8.518;2023-03-04T00:11:49;27.90;;;17.42;;
22904;SDS011;11619;50.140;8.518;2023-03-04T00:14:15;30.73;;;17.98;;
22904;SDS011;11619;50.140;8.518;2023-03-04T00:16:42;32.78;;;18.02;;
22904;SDS011;11619;50.140;8.518;2023-03-04T00:19:09;31.83;;;18.55;;
22904;SDS011;11619;50.140;8.518;2023-03-04T00:21:35;33.67;;;19.67;;
22904;SDS011;11619;50.140;8.518;2023-03-04T00:24:02;31.67;;;19.35;;
22904;SDS011;11619;50.140;8.518;2023-03-04T00:26:28;31.00;;;19.42;;
22904;SDS011;11619;50.140;8.518;2023-03-04T00:28:54;33.17;;;19.85;;
22904;SDS011;11619;50.140;8.518;2023-03-04T00:31:21;40.55;;;21.77;;
22904;SDS011;11619;50.140;8.518;2023-03-04T00:33:47;34.70;;;20.67;;
22904;SDS011;11619;50.140;8.518;2023-03-04T00:36:14;32.60;;;19.95;;
22904;SDS011;11619;50.140;8.518;2023-03-04T00:38:40;36.35;;;20.55;;
22904;SDS011;11619;50.140;8.518;2023-03-04T00:41:07;37.50;;;21.00;;
22904;SDS011;11619;50.140;8.518;2023-03-04T00:43:33;34.72;;;20.63;;
22904;SDS011;11619;50.140;8.518;2023-03-04T00:45:59;30.65;;;18.80;;
22904;SDS011;11619;50.140;8.518;2023-03-04T00:48:26;30.67;;;18.48;;
22904;SDS011;11619;50.140;8.518;2023-03-04T00:50:52;29.77;;;18.05;;
22904;SDS011;11619;50.140;8.518;2023-03-04T00:53:19;30.15;;;18.83;;
22904;SDS011;11619;50.140;8.518;2023-03-04T00:55:46;32.05;;;18.38;;
22904;SDS011;11619;50.140;8.518;2023-03-04T00:58:12;30.05;;;18.85;;
22904;SDS011;11619;50.140;8.518;2023-03-04T01:00:39;33.17;;;19.35;;
22904;SDS011;11619;50.140;8.518;2023-03-04T01:03:05;33.30;;;19.55;;
22904;SDS011;11619;50.140;8.518;2023-03-04T01:05:31;35.90;;;21.17;;
22904;SDS011;11619;50.140;8.518;2023-03-04T01:08:01;36.50;;;19.75;;
22904;SDS011;11619;50.140;8.518;2023-03-04T01:10:27;30.55;;;18.65;;
22904;SDS011;11619;50.140;8.518;2023-03-04T01:12:54;35.10;;;19.52;;
22904;SDS011;11619;50.140;8.518;2023-03-04T01:15:20;31.50;;;18.52;;
22904;SDS011;11619;50.140;8.518;2023-03-04T01:17:47;31.90;;;18.48;;
22904;SDS011;11619;50.140;8.518;2023-03-04T01:20:13;29.00;;;16.95;;
22904;SDS011;11619;50.140;8.518;2023-03-04T01:22:40;29.42;;;16.85;;
22904;SDS011;11619;50.140;8.518;2023-03-04T01:25:07;26.48;;;16.52;;
22904;SDS011;11619;50.140;8.518;2023-03-04T01:27:33;25.27;;;15.77;;
22904;SDS011;11619;50.140;8.518;2023-03-04T01:30:00;28.65;;;15.90;;
22904;SDS011;11619;50.140;8.518;2023-03-04T01:32:26;26.00;;;14.90;;
22904;SDS011;11619;50.140;8.518;2023-03-04T01:34:53;26.02;;;15.60;;
22904;SDS011;11619;50.140;8.518;2023-03-04T01:37:19;24.35;;;14.65;;
22904;SDS011;11619;50.140;8.518;2023-03-04T01:39:45;27.30;;;16.38;;
22904;SDS011;11619;50.140;8.518;2023-03-04T01:42:22;27.15;;;16.58;;
22904;SDS011;11619;50.140;8.518;2023-03-04T01:44:49;27.42;;;16.20;;
22904;SDS011;11619;50.140;8.518;2023-03-04T01:47:16;30.45;;;16.08;;
22904;SDS011;11619;50.140;8.518;2023-03-04T01:49:50;25.17;;;15.50;;
22904;SDS011;11619;50.140;8.518;2023-03-04T01:52:19;24.45;;;15.32;;
22904;SDS011;11619;50.140;8.518;2023-03-04T01:54:46;29.20;;;15.77;;
22904;SDS011;11619;50.140;8.518;2023-03-04T01:57:23;27.35;;;15.40;;
22904;SDS011;11619;50.140;8.518;2023-03-04T02:00:10;24.30;;;14.00;;
22904;SDS011;11619;50.140;8.518;2023-03-04T02:02:40;26.58;;;15.30;;
22904;SDS011;11619;50.140;8.518;2023-03-04T02:05:06;26.02;;;14.90;;
22904;SDS011;11619;50.140;8.518;2023-03-04T02:07:33;29.52;;;15.95;;
22904;SDS011;11619;50.140;8.518;2023-03-04T02:09:59;30.58;;;15.40;;
22904;SDS011;11619;50.140;8.518;2023-03-04T02:12:26;25.52;;;14.23;;
22904;SDS011;11619;50.140;8.518;2023-03-04T02:14:52;25.63;;;15.35;;
22904;SDS011;11619;50.140;8.518;2023-03-04T02:17:23;25.52;;;14.40;;
22904;SDS011;11619;50.140;8.518;2023-03-04T02:20:27;24.58;;;14.40;;
22904;SDS011;11619;50.140;8.518;2023-03-04T02:26:26;21.50;;;13.63;;
22904;SDS011;11619;50.140;8.518;2023-03-04T02:28:54;25.13;;;15.10;;
22904;SDS011;11619;50.140;8.518;2023-03-04T02:33:58;21.75;;;13.00;;
22904;SDS011;11619;50.140;8.518;2023-03-04T02:36:27;22.98;;;13.60;;
22904;SDS011;11619;50.140;8.518;2023-03-04T02:38:54;22.17;;;12.98;;
22904;SDS011;11619;50.140;8.518;2023-03-04T02:41:24;25.98;;;13.55;;
22904;SDS011;11619;50.140;8.518;2023-03-04T02:43:52;21.23;;;13.55;;
22904;SDS011;11619;50.140;8.518;2023-03-04T02:46:19;25.17;;;14.20;;
22904;SDS011;11619;50.140;8.518;2023-03-04T02:48:46;22.52;;;12.52;;
22904;SDS011;11619;50.140;8.518;2023-03-04T02:51:12;21.90;;;13.68;;
22904;SDS011;11619;50.140;8.518;2023-03-04T02:53:39;23.98;;;13.18;;
22904;SDS011;11619;50.140;8.518;2023-03-04T02:56:05;21.05;;;13.40;;
22904;SDS011;11619;50.140;8.518;2023-03-04T02:58:32;21.08;;;13.48;;
22904;SDS011;11619;50.140;8.518;2023-03-04T03:00:59;25.88;;;13.57;;
22904;SDS011;11619;50.140;8.518;2023-03-04T03:03:28;26.48;;;14.93;;
22904;SDS011;11619;50.140;8.518;2023-03-04T03:05:55;27.95;;;14.48;;
22904;SDS011;11619;50.140;8.518;2023-03-04T03:08:21;31.15;;;15.73;;
22904;SDS011;11619;50.140;8.518;2023-03-04T03:10:51;29.50;;;16.63;;
22904;SDS011;11619;50.140;8.518;2023-03-04T03:13:17;29.30;;;17.02;;
22904;SDS011;11619;50.140;8.518;2023-03-04T03:15:44;33.92;;;18.15;;
22904;SDS011;11619;50.140;8.518;2023-03-04T03:18:10;33.97;;;18.75;;
22904;SDS011;11619;50.140;8.518;2023-03-04T03:20:37;38.13;;;19.70;;
22904;SDS011;11619;50.140;8.518;2023-03-04T03:23:03;31.15;;;17.77;;
22904;SDS011;11619;50.140;8.518;2023-03-04T03:25:30;41.15;;;20.05;;
22904;SDS011;11619;50.140;8.518;2023-03-04T03:27:56;36.67;;;19.55;;
22904;SDS011;11619;50.140;8.518;2023-03-04T03:30:23;40.03;;;21.67;;
22904;SDS011;11619;50.140;8.518;2023-03-04T03:32:49;40.15;;;20.60;;
22904;SDS011;11619;50.140;8.518;2023-03-04T03:35:16;34.00;;;19.60;;
22904;SDS011;11619;50.140;8.518;2023-03-04T03:37:45;36.53;;;19.33;;
22904;SDS011;11619;50.140;8.518;2023-03-04T03:40:14;36.95;;;18.88;;
22904;SDS011;11619;50.140;8.518;2023-03-04T03:42:40;35.92;;;19.88;;
22904;SDS011;11619;50.140;8.518;2023-03-04T03:45:07;41.60;;;21.88;;
22904;SDS011;11619;50.140;8.518;2023-03-04T03:47:33;35.78;;;18.33;;
22904;SDS011;11619;50.140;8.518;2023-03-04T03:50:00;38.03;;;20.52;;
22904;SDS011;11619;50.140;8.518;2023-03-04T03:52:26;34.60;;;19.98;;
22904;SDS011;11619;50.140;8.518;2023-03-04T03:54:53;37.15;;;18.98;;
22904;SDS011;11619;50.140;8.518;2023-03-04T03:57:19;34.05;;;19.15;;
22904;SDS011;11619;50.140;8.518;2023-03-04T03:59:45;38.25;;;20.67;;
22904;SDS011;11619;50.140;8.518;2023-03-04T04:02:12;36.70;;;20.50;;
22904;SDS011;11619;50.140;8.518;2023-03-04T04:04:38;39.63;;;20.85;;
22904;SDS011;11619;50.140;8.518;2023-03-04T04:07:05;35.72;;;20.08;;
22904;SDS011;11619;50.140;8.518;2023-03-04T04:09:31;38.60;;;19.92;;
22904;SDS011;11619;50.140;8.518;2023-03-04T04:11:58;32.33;;;19.25;;
22904;SDS011;11619;50.140;8.518;2023-03-04T04:14:24;37.78;;;18.92;;
22904;SDS011;11619;50.140;8.518;2023-03-04T04:16:50;35.70;;;19.25;;
22904;SDS011;11619;50.140;8.518;2023-03-04T04:19:17;36.92;;;20.70;;
22904;SDS011;11619;50.140;8.518;2023-03-04T04:21:44;40.75;;;20.73;;
22904;SDS011;11619;50.140;8.518;2023-03-04T04:24:11;34.65;;;19.00;;
22904;SDS011;11619;50.140;8.518;2023-03-04T04:26:37;39.60;;;19.17;;
22904;SDS011;11619;50.140;8.518;2023-03-04T04:29:04;39.85;;;21.13;;
22904;SDS011;11619;50.140;8.518;2023-03-04T04:31:30;40.72;;;21.80;;
22904;SDS011;11619;50.140;8.518;2023-03-04T04:33:57;41.15;;;20.35;;
22904;SDS011;11619;50.140;8.518;2023-03-04T04:36:23;39.72;;;21.63;;
22904;SDS011;11619;50.140;8.518;2023-03-04T04:38:49;39.65;;;21.13;;
22904;SDS011;11619;50.140;8.518;2023-03-04T04:41:20;41.15;;;21.40;;
22904;SDS011;11619;50.140;8.518;2023-03-04T04:43:48;42.17;;;22.58;;
22904;SDS011;11619;50.140;8.518;2023-03-04T04:46:15;39.10;;;22.02;;
22904;SDS011;11619;50.140;8.518;2023-03-04T04:48:42;37.22;;;22.20;;
22904;SDS011;11619;50.140;8.518;2023-03-04T04:51:08;38.78;;;21.85;;
22904;SDS011;11619;50.140;8.518;2023-03-04T04:53:35;40.33;;;22.17;;
22904;SDS011;11619;50.140;8.518;2023-03-04T04:56:12;41.03;;;22.05;;
22904;SDS011;11619;50.140;8.518;2023-03-04T04:58:43;37.42;;;20.88;;
22904;SDS011;11619;50.140;8.518;2023-03-04T05:01:09;42.58;;;21.90;;
22904;SDS011;11619;50.140;8.518;2023-03-04T05:03:36;41.38;;;21.92;;
22904;SDS011;11619;50.140;8.518;2023-03-04T05:06:04;46.63;;;23.33;;
22904;SDS011;11619;50.140;8.518;2023-03-04T05:08:32;38.33;;;21.48;;
22904;SDS011;11619;50.140;8.518;2023-03-04T05:10:59;37.10;;;20.75;;
22904;SDS011;11619;50.140;8.518;2023-03-04T05:13:26;37.42;;;20.35;;
22904;SDS011;11619;50.140;8.518;2023-03-04T05:15:53;41.13;;;21.33;;
22904;SDS011;11619;50.140;8.518;2023-03-04T05:18:21;40.58;;;22.05;;
22904;SDS011;11619;50.140;8.518;2023-03-04T05:20:51;38.42;;;22.10;;
22904;SDS011;11619;50.140;8.518;2023-03-04T05:23:18;38.38;;;20.95;;
22904;SDS011;11619;50.140;8.518;2023-03-04T05:25:45;45.97;;;23.75;;
22904;SDS011;11619;50.140;8.518;2023-03-04T05:28:11;45.30;;;22.25;;
22904;SDS011;11619;50.140;8.518;2023-03-04T05:30:38;38.92;;;21.67;;
22904;SDS011;11619;50.140;8.518;2023-03-04T05:33:05;34.90;;;20.42;;
22904;SDS011;11619;50.140;8.518;2023-03-04T05:35:34;37.78;;;20.98;;
22904;SDS011;11619;50.140;8.518;2023-03-04T05:38:02;38.42;;;21.30;;
22904;SDS011;11619;50.140;8.518;2023-03-04T05:40:29;37.95;;;21.25;;
22904;SDS011;11619;50.140;8.518;2023-03-04T05:42:55;41.40;;;20.98;;
22904;SDS011;11619;50.140;8.518;2023-03-04T05:45:22;32.60;;;20.05;;
22904;SDS011;11619;50.140;8.518;2023-03-04T05:47:48;36.47;;;20.73;;
22904;SDS011;11619;50.140;8.518;2023-03-04T05:50:15;34.25;;;20.20;;
22904;SDS011;11619;50.140;8.518;2023-03-04T05:52:41;34.65;;;19.77;;
22904;SDS011;11619;50.140;8.518;2023-03-04T05:55:08;31.77;;;18.92;;
22904;SDS011;11619;50.140;8.518;2023-03-04T05:57:34;36.53;;;21.10;;
22904;SDS011;11619;50.140;8.518;2023-03-04T06:00:01;31.60;;;19.88;;
22904;SDS011;11619;50.140;8.518;2023-03-04T06:02:30;36.38;;;21.50;;
22904;SDS011;11619;50.140;8.518;2023-03-04T06:04:56;32.17;;;18.58;;
22904;SDS011;11619;50.140;8.518;2023-03-04T06:07:23;35.13;;;20.30;;
22904;SDS011;11619;50.140;8.518;2023-03-04T06:09:49;35.30;;;21.45;;
22904;SDS011;11619;50.140;8.518;2023-03-04T06:12:16;39.33;;;22.25;;
22904;SDS011;11619;50.140;8.518;2023-03-04T06:14:44;37.17;;;22.00;;
22904;SDS011;11619;50.140;8.518;2023-03-04T06:17:10;34.95;;;21.98;;
22904;SDS011;11619;50.140;8.518;2023-03-04T06:19:37;39.22;;;22.65;;
22904;SDS011;11619;50.140;8.518;2023-03-04T06:22:03;38.00;;;21.58;;
22904;SDS011;11619;50.140;8.518;2023-03-04T06:24:30;35.92;;;22.05;;
22904;SDS011;11619;50.140;8.518;2023-03-04T06:26:56;36.28;;;22.05;;
22904;SDS011;11619;50.140;8.518;2023-03-04T06:29:23;40.55;;;23.30;;
22904;SDS011;11619;50.140;8.518;2023-03-04T06:31:49;33.65;;;21.48;;
22904;SDS011;11619;50.140;8.518;2023-03-04T06:34:16;33.55;;;21.65;;
22904;SDS011;11619;50.140;8.518;2023-03-04T06:36:42;35.72;;;21.15;;
22904;SDS011;11619;50.140;8.518;2023-03-04T06:39:09;40.17;;;23.90;;
22904;SDS011;11619;50.140;8.518;2023-03-04T06:41:36;35.92;;;22.80;;
22904;SDS011;11619;50.140;8.518;2023-03-04T06:44:02;38.03;;;23.13;;
22904;SDS011;11619;50.140;8.518;2023-03-04T06:46:29;33.22;;;22.00;;
22904;SDS011;11619;50.140;8.518;2023-03-04T06:48:55;37.85;;;23.65;;
22904;SDS011;11619;50.140;8.518;2023-03-04T06:51:22;35.90;;;21.42;;
22904;SDS011;11619;50.140;8.518;2023-03-04T06:53:48;37.83;;;22.63;;
22904;SDS011;11619;50.140;8.518;2023-03-04T06:56:15;40.80;;;22.92;;
22904;SDS011;11619;50.140;8.518;2023-03-04T06:58:42;37.20;;;22.55;;
22904;SDS011;11619;50.140;8.518;2023-03-04T07:03:39;36.22;;;22.85;;
22904;SDS011;11619;50.140;8.518;2023-03-04T07:06:05;37.95;;;23.63;;
22904;SDS011;11619;50.140;8.518;2023-03-04T07:08:32;37.22;;;22.20;;
22904;SDS011;11619;50.140;8.518;2023-03-04T07:10:58;36.00;;;21.67;;
22904;SDS011;11619;50.140;8.518;2023-03-04T07:13:25;34.50;;;21.73;;
22904;SDS011;11619;50.140;8.518;2023-03-04T07:15:51;37.63;;;23.15;;
22904;SDS011;11619;50.140;8.518;2023-03-04T07:18:17;36.95;;;23.35;;
22904;SDS011;11619;50.140;8.518;2023-03-04T07:20:44;36.40;;;22.35;;
22904;SDS011;11619;50.140;8.518;2023-03-04T07:23:10;38.13;;;23.38;;
22904;SDS011;11619;50.140;8.518;2023-03-04T07:25:36;35.28;;;23.20;;
22904;SDS011;11619;50.140;8.518;2023-03-04T07:28:03;36.13;;;23.23;;
22904;SDS011;11619;50.140;8.518;2023-03-04T07:30:29;36.17;;;22.88;;
22904;SDS011;11619;50.140;8.518;2023-03-04T07:32:56;35.15;;;22.20;;
22904;SDS011;11619;50.140;8.518;2023-03-04T07:35:23;36.97;;;23.45;;
22904;SDS011;11619;50.140;8.518;2023-03-04T07:37:49;40.78;;;24.30;;
22904;SDS011;11619;50.140;8.518;2023-03-04T07:40:16;36.80;;;23.65;;
22904;SDS011;11619;50.140;8.518;2023-03-04T07:42:42;33.25;;;23.25;;
22904;SDS011;11619;50.140;8.518;2023-03-04T07:45:09;31.58;;;21.38;;
22904;SDS011;11619;50.140;8.518;2023-03-04T07:47:37;32.58;;;20.80;;
22904;SDS011;11619;50.140;8.518;2023-03-04T07:50:03;27.73;;;18.02;;
22904;SDS011;11619;50.140;8.518;2023-03-04T07:52:30;29.45;;;14.18;;
22904;SDS011;11619;50.140;8.518;2023-03-04T07:54:56;73.57;;;37.88;;
22904;SDS011;11619;50.140;8.518;2023-03-04T07:57:22;52.72;;;33.55;;
22904;SDS011;11619;50.140;8.518;2023-03-04T07:59:49;37.55;;;27.23;;
22904;SDS011;11619;50.140;8.518;2023-03-04T08:02:15;29.67;;;21.92;;
22904;SDS011;11619;50.140;8.518;2023-03-04T08:04:42;33.47;;;22.75;;
22904;SDS011;11619;50.140;8.518;2023-03-04T08:07:08;29.63;;;21.52;;
22904;SDS011;11619;50.140;8.518;2023-03-04T08:09:34;28.88;;;22.23;;
22904;SDS011;11619;50.140;8.518;2023-03-04T08:12:01;26.50;;;19.90;;
22904;SDS011;11619;50.140;8.518;2023-03-04T08:14:27;24.50;;;19.33;;
22904;SDS011;11619;50.140;8.518;2023-03-04T08:16:54;27.15;;;19.88;;
22904;SDS011;11619;50.140;8.518;2023-03-04T08:19:20;28.85;;;19.30;;
22904;SDS011;11619;50.140;8.518;2023-03-04T08:21:46;29.92;;;20.15;;
22904;SDS011;11619;50.140;8.518;2023-03-04T08:24:13;25.88;;;19.88;;
22904;SDS011;11619;50.140;8.518;2023-03-04T08:26:43;28.70;;;19.02;;
22904;SDS011;11619;50.140;8.518;2023-03-04T08:29:12;24.88;;;17.67;;
22904;SDS011;11619;50.140;8.518;2023-03-04T08:31:41;24.40;;;16.73;;
22904;SDS011;11619;50.140;8.518;2023-03-04T08:34:08;23.05;;;16.85;;
22904;SDS011;11619;50.140;8.518;2023-03-04T08:36:35;25.60;;;18.05;;
22904;SDS011;11619;50.140;8.518;2023-03-04T08:39:02;22.83;;;16.10;;
22904;SDS011;11619;50.140;8.518;2023-03-04T08:41:30;23.23;;;16.10;;
22904;SDS011;11619;50.140;8.518;2023-03-04T08:43:57;24.75;;;16.17;;
22904;SDS011;11619;50.140;8.518;2023-03-04T08:46:24;21.48;;;15.52;;
22904;SDS011;11619;50.140;8.518;2023-03-04T08:48:50;20.02;;;14.32;;
22904;SDS011;11619;50.140;8.518;2023-03-04T08:51:17;21.30;;;14.95;;
22904;SDS011;11619;50.140;8.518;2023-03-04T08:53:43;21.95;;;15.00;;
22904;SDS011;11619;50.140;8.518;2023-03-04T08:56:10;22.73;;;14.85;;
22904;SDS011;11619;50.140;8.518;2023-03-04T08:58:37;21.58;;;14.85;;
22904;SDS011;11619;50.140;8.518;2023-03-04T09:01:04;20.42;;;13.48;;
22904;SDS011;11619;50.140;8.518;2023-03-04T09:03:33;19.30;;;13.32;;
22904;SDS011;11619;50.140;8.518;2023-03-04T09:06:00;21.40;;;13.68;;
22904;SDS011;11619;50.140;8.518;2023-03-04T09:08:27;19.77;;;13.20;;
22904;SDS011;11619;50.140;8.518;2023-03-04T09:10:54;16.70;;;12.50;;
22904;SDS011;11619;50.140;8.518;2023-03-04T09:13:21;24.15;;;14.45;;
22904;SDS011;11619;50.140;8.518;2023-03-04T09:15:51;23.92;;;14.15;;
22904;SDS011;11619;50.140;8.518;2023-03-04T09:18:19;18.52;;;12.18;;
22904;SDS011;11619;50.140;8.518;2023-03-04T09:20:46;19.40;;;10.95;;
22904;SDS011;11619;50.140;8.518;2023-03-04T09:23:13;22.33;;;12.90;;
22904;SDS011;11619;50.140;8.518;2023-03-04T09:25:40;18.48;;;10.32;;
22904;SDS011;11619;50.140;8.518;2023-03-04T09:28:07;16.77;;;9.70;;
22904;SDS011;11619;50.140;8.518;2023-03-04T09:30:33;18.90;;;10.25;;
22904;SDS011;11619;50.140;8.518;2023-03-04T09:33:02;21.77;;;9.98;;
22904;SDS011;11619;50.140;8.518;2023-03-04T09:35:28;20.67;;;9.82;;
22904;SDS011;11619;50.140;8.518;2023-03-04T09:37:55;22.20;;;9.57;;
22904;SDS011;11619;50.140;8.518;2023-03-04T09:40:24;18.15;;;9.25;;
22904;SDS011;11619;50.140;8.518;2023-03-04T09:42:56;20.42;;;9.38;;
22904;SDS011;11619;50.140;8.518;2023-03-04T09:45:27;17.60;;;9.27;;
22904;SDS011;11619;50.140;8.518;2023-03-04T09:47:58;15.10;;;8.80;;
22904;SDS011;11619;50.140;8.518;2023-03-04T09:50:25;21.00;;;8.57;;
22904;SDS011;11619;50.140;8.518;2023-03-04T09:55:40;20.88;;;8.50;;
22904;SDS011;11619;50.140;8.518;2023-03-04T10:01:21;14.77;;;7.07;;
22904;SDS011;11619;50.140;8.518;2023-03-04T10:03:57;14.57;;;7.00;;
22904;SDS011;11619;50.140;8.518;2023-03-04T10:06:26;16.38;;;7.53;;
22904;SDS011;11619;50.140;8.518;2023-03-04T10:11:43;18.55;;;8.25;;
22904;SDS011;11619;50.140;8.518;2023-03-04T10:14:18;16.98;;;7.78;;
22904;SDS011;11619;50.140;8.518;2023-03-04T10:17:02;13.80;;;8.05;;
22904;SDS011;11619;50.140;8.518;2023-03-04T10:19:48;17.60;;;8.23;;
22904;SDS011;11619;50.140;8.518;2023-03-04T10:24:47;14.15;;;7.57;;
22904;SDS011;11619;50.140;8.518;2023-03-04T10:27:14;17.13;;;7.70;;
22904;SDS011;11619;50.140;8.518;2023-03-04T10:29:42;14.32;;;7.35;;
22904;SDS011;11619;50.140;8.518;2023-03-04T10:32:13;15.10;;;7.65;;
22904;SDS011;11619;50.140;8.518;2023-03-04T10:34:42;21.33;;;7.20;;
22904;SDS011;11619;50.140;8.518;2023-03-04T10:37:08;15.65;;;7.57;;
22904;SDS011;11619;50.140;8.518;2023-03-04T10:39:40;20.55;;;8.13;;
22904;SDS011;11619;50.140;8.518;2023-03-04T10:44:41;16.05;;;7.38;;
22904;SDS011;11619;50.140;8.518;2023-03-04T10:47:10;17.30;;;7.75;;
22904;SDS011;11619;50.140;8.518;2023-03-04T10:49:53;17.58;;;8.60;;
22904;SDS011;11619;50.140;8.518;2023-03-04T10:55:06;15.48;;;6.55;;
22904;SDS011;11619;50.140;8.518;2023-03-04T10:57:40;14.10;;;7.03;;
22904;SDS011;11619;50.140;8.518;2023-03-04T11:05:51;16.42;;;6.72;;
22904;SDS011;11619;50.140;8.518;2023-03-04T11:08:20;18.52;;;7.40;;
22904;SDS011;11619;50.140;8.518;2023-03-04T11:10:47;17.23;;;7.25;;
22904;SDS011;11619;50.140;8.518;2023-03-04T11:13:16;14.90;;;7.38;;
22904;SDS011;11619;50.140;8.518;2023-03-04T11:18:13;16.23;;;6.75;;
22904;SDS011;11619;50.140;8.518;2023-03-04T11:20:42;17.98;;;6.60;;
22904;SDS011;11619;50.140;8.518;2023-03-04T11:23:17;18.73;;;7.13;;
22904;SDS011;11619;50.140;8.518;2023-03-04T11:25:49;17.77;;;6.68;;
22904;SDS011;11619;50.140;8.518;2023-03-04T11:31:27;13.68;;;6.15;;
22904;SDS011;11619;50.140;8.518;2023-03-04T11:33:57;15.80;;;5.38;;
22904;SDS011;11619;50.140;8.518;2023-03-04T11:39:23;11.60;;;6.10;;
22904;SDS011;11619;50.140;8.518;2023-03-04T11:41:57;15.98;;;6.55;;
22904;SDS011;11619;50.140;8.518;2023-03-04T11:44:28;17.27;;;6.68;;
22904;SDS011;11619;50.140;8.518;2023-03-04T11:47:04;15.10;;;5.78;;
22904;SDS011;11619;50.140;8.518;2023-03-04T12:03:14;14.73;;;5.93;;
22904;SDS011;11619;50.140;8.518;2023-03-04T12:06:17;14.23;;;5.30;;
22904;SDS011;11619;50.140;8.518;2023-03-04T12:09:13;10.98;;;5.38;;
22904;SDS011;11619;50.140;8.518;2023-03-04T12:12:07;18.85;;;5.13;;
22904;SDS011;11619;50.140;8.518;2023-03-04T12:17:46;10.95;;;5.13;;
22904;SDS011;11619;50.140;8.518;2023-03-04T12:28:22;9.00;;;5.28;;
22904;SDS011;11619;50.140;8.518;2023-03-04T12:31:07;17.75;;;6.07;;
22904;SDS011;11619;50.140;8.518;2023-03-04T12:33:53;15.48;;;6.32;;
22904;SDS011;11619;50.140;8.518;2023-03-04T12:45:33;10.57;;;4.47;;
22904;SDS011;11619;50.140;8.518;2023-03-04T12:48:22;10.52;;;4.80;;
22904;SDS011;11619;50.140;8.518;2023-03-04T12:51:11;10.93;;;5.00;;
22904;SDS011;11619;50.140;8.518;2023-03-04T12:56:21;11.60;;;6.60;;
22904;SDS011;11619;50.140;8.518;2023-03-04T12:59:13;10.93;;;5.25;;
22904;SDS011;11619;50.140;8.518;2023-03-04T13:01:42;12.57;;;6.00;;
22904;SDS011;11619;50.140;8.518;2023-03-04T13:05:06;12.75;;;5.90;;
22904;SDS011;11619;50.140;8.518;2023-03-04T13:10:31;7.93;;;3.72;;
22904;SDS011;11619;50.140;8.518;2023-03-04T13:12:58;11.38;;;3.78;;
22904;SDS011;11619;50.140;8.518;2023-03-04T13:18:29;7.28;;;3.20;;
22904;SDS011;11619;50.140;8.518;2023-03-04T13:23:36;6.40;;;3.35;;
22904;SDS011;11619;50.140;8.518;2023-03-04T13:26:15;9.60;;;4.20;;
22904;SDS011;11619;50.140;8.518;2023-03-04T13:28:43;7.20;;;4.07;;
22904;SDS011;11619;50.140;8.518;2023-03-04T13:31:14;6.97;;;4.32;;
22904;SDS011;11619;50.140;8.518;2023-03-04T13:33:44;8.50;;;4.70;;
22904;SDS011;11619;50.140;8.518;2023-03-04T13:36:34;10.13;;;4.80;;
22904;SDS011;11619;50.140;8.518;2023-03-04T13:41:50;7.85;;;3.80;;
22904;SDS011;11619;50.140;8.518;2023-03-04T13:47:13;12.55;;;5.13;;
22904;SDS011;11619;50.140;8.518;2023-03-04T13:49:41;8.57;;;4.57;;
22904;SDS011;11619;50.140;8.518;2023-03-04T13:58:12;10.30;;;5.38;;
22904;SDS011;11619;50.140;8.518;2023-03-04T14:00:46;13.35;;;5.63;;
22904;SDS011;11619;50.140;8.518;2023-03-04T14:03:18;11.07;;;5.75;;
22904;SDS011;11619;50.140;8.518;2023-03-04T14:05:46;11.27;;;5.47;;
22904;SDS011;11619;50.140;8.518;2023-03-04T14:08:17;12.52;;;6.70;;
22904;SDS011;11619;50.140;8.518;2023-03-04T14:10:44;12.55;;;6.22;;
22904;SDS011;11619;50.140;8.518;2023-03-04T14:13:10;9.43;;;5.07;;
22904;SDS011;11619;50.140;8.518;2023-03-04T14:15:37;13.48;;;6.10;;
22904;SDS011;11619;50.140;8.518;2023-03-04T14:18:04;16.75;;;6.10;;
22904;SDS011;11619;50.140;8.518;2023-03-04T14:20:34;12.77;;;5.50;;
22904;SDS011;11619;50.140;8.518;2023-03-04T14:23:03;12.02;;;6.00;;
22904;SDS011;11619;50.140;8.518;2023-03-04T14:25:47;11.65;;;5.63;;
22904;SDS011;11619;50.140;8.518;2023-03-04T14:28:16;11.63;;;5.60;;
22904;SDS011;11619;50.140;8.518;2023-03-04T14:30:50;8.82;;;5.00;;
22904;SDS011;11619;50.140;8.518;2023-03-04T14:33:18;8.38;;;5.30;;
22904;SDS011;11619;50.140;8.518;2023-03-04T14:35:47;15.48;;;5.32;;
22904;SDS011;11619;50.140;8.518;2023-03-04T14:41:34;13.70;;;5.47;;
22904;SDS011;11619;50.140;8.518;2023-03-04T14:46:19;10.25;;;5.03;;
22904;SDS011;11619;50.140;8.518;2023-03-04T14:48:50;9.98;;;4.95;;
22904;SDS011;11619;50.140;8.518;2023-03-04T14:51:28;7.97;;;4.95;;
22904;SDS011;11619;50.140;8.518;2023-03-04T14:53:59;9.25;;;5.53;;
22904;SDS011;11619;50.140;8.518;2023-03-04T14:56:26;12.32;;;5.07;;
22904;SDS011;11619;50.140;8.518;2023-03-04T14:58:58;14.57;;;4.90;;
22904;SDS011;11619;50.140;8.518;2023-03-04T15:04:04;7.28;;;4.53;;
22904;SDS011;11619;50.140;8.518;2023-03-04T15:06:34;6.55;;;3.90;;
22904;SDS011;11619;50.140;8.518;2023-03-04T15:09:05;8.43;;;4.95;;
22904;SDS011;11619;50.140;8.518;2023-03-04T15:11:46;7.28;;;3.97;;
22904;SDS011;11619;50.140;8.518;2023-03-04T15:17:26;6.95;;;4.00;;
22904;SDS011;11619;50.140;8.518;2023-03-04T15:22:27;7.13;;;3.42;;
22904;SDS011;11619;50.140;8.518;2023-03-04T15:24:54;9.50;;;5.05;;
22904;SDS011;11619;50.140;8.518;2023-03-04T15:27:21;6.75;;;4.72;;
22904;SDS011;11619;50.140;8.518;2023-03-04T15:29:52;8.60;;;4.50;;
22904;SDS011;11619;50.140;8.518;2023-03-04T15:32:24;6.40;;;4.00;;
22904;SDS011;11619;50.140;8.518;2023-03-04T15:34:51;7.80;;;4.57;;
22904;SDS011;11619;50.140;8.518;2023-03-04T15:37:22;9.80;;;5.05;;
22904;SDS011;11619;50.140;8.518;2023-03-04T15:39:54;8.82;;;5.00;;
22904;SDS011;11619;50.140;8.518;2023-03-04T15:42:21;9.15;;;5.22;;
22904;SDS011;11619;50.140;8.518;2023-03-04T15:44:48;9.88;;;5.38;;
22904;SDS011;11619;50.140;8.518;2023-03-04T15:47:14;7.13;;;5.55;;
22904;SDS011;11619;50.140;8.518;2023-03-04T15:49:42;11.35;;;6.00;;
22904;SDS011;11619;50.140;8.518;2023-03-04T15:52:14;10.65;;;6.18;;
22904;SDS011;11619;50.140;8.518;2023-03-04T15:54:42;12.45;;;6.32;;
22904;SDS011;11619;50.140;8.518;2023-03-04T15:57:25;10.80;;;5.65;;
22904;SDS011;11619;50.140;8.518;2023-03-04T15:59:51;8.38;;;6.10;;
22904;SDS011;11619;50.140;8.518;2023-03-04T16:02:20;11.18;;;6.85;;
22904;SDS011;11619;50.140;8.518;2023-03-04T16:04:48;8.35;;;5.85;;
22904;SDS011;11619;50.140;8.518;2023-03-04T16:07:18;9.13;;;6.15;;
22904;SDS011;11619;50.140;8.518;2023-03-04T16:09:47;9.52;;;7.03;;
22904;SDS011;11619;50.140;8.518;2023-03-04T16:12:16;11.15;;;8.10;;
22904;SDS011;11619;50.140;8.518;2023-03-04T16:14:43;11.88;;;8.27;;
22904;SDS011;11619;50.140;8.518;2023-03-04T16:17:12;10.07;;;7.32;;
22904;SDS011;11619;50.140;8.518;2023-03-04T16:19:41;10.77;;;7.65;;
22904;SDS011;11619;50.140;8.518;2023-03-04T16:22:14;11.70;;;8.57;;
22904;SDS011;11619;50.140;8.518;2023-03-04T16:24:42;11.30;;;8.30;;
22904;SDS011;11619;50.140;8.518;2023-03-04T16:27:09;9.32;;;8.15;;
22904;SDS011;11619;50.140;8.518;2023-03-04T16:29:37;15.30;;;9.73;;